sensor_id;sensor_type;location;lat;lon;timestamp;P1;durP1;ratioP1;P2;durP2;ratioP2
830;SDS011;397;50.564;7.272;2023-05-16T00:01:38;11.60;;;8.40;;
830;SDS011;397;50.564;7.272;2023-05-16T00:04:06;12.23;;;8.97;;
830;SDS011;397;50.564;7.272;2023-05-16T00:06:33;12.23;;;10.13;;
830;SDS011;397;50.564;7.272;2023-05-16T00:09:01;13.03;;;9.57;;
830;SDS011;397;50.564;7.272;2023-05-16T00:11:28;12.23;;;9.30;;
830;SDS011;397;50.564;7.272;2023-05-16T00:13:56;12.70;;;10.00;;
830;SDS011;397;50.564;7.272;2023-05-16T00:16:23;17.67;;;8.73;;
830;SDS011;397;50.564;7.272;2023-05-16T00:18:52;10.00;;;8.57;;
830;SDS011;397;50.564;7.272;2023-05-16T00:21:21;14.10;;;8.87;;
830;SDS011;397;50.564;7.272;2023-05-16T00:23:49;10.63;;;7.77;;
830;SDS011;397;50.564;7.272;2023-05-16T00:26:17;8.90;;;7.80;;
830;SDS011;397;50.564;7.272;2023-05-16T00:28:45;12.63;;;9.43;;
830;SDS011;397;50.564;7.272;2023-05-16T00:31:13;11.63;;;7.23;;
830;SDS011;397;50.564;7.272;2023-05-16T00:33:41;9.50;;;7.10;;
830;SDS011;397;50.564;7.272;2023-05-16T00:36:08;8.40;;;7.50;;
830;SDS011;397;50.564;7.272;2023-05-16T00:38:36;8.63;;;7.33;;
830;SDS011;397;50.564;7.272;2023-05-16T00:41:03;8.13;;;7.20;;
830;SDS011;397;50.564;7.272;2023-05-16T00:43:31;9.03;;;7.57;;
830;SDS011;397;50.564;7.272;2023-05-16T00:45:58;11.37;;;7.30;;
830;SDS011;397;50.564;7.272;2023-05-16T00:48:26;7.70;;;6.50;;
830;SDS011;397;50.564;7.272;2023-05-16T00:50:54;10.40;;;6.50;;
830;SDS011;397;50.564;7.272;2023-05-16T00:53:22;10.53;;;6.10;;
830;SDS011;397;50.564;7.272;2023-05-16T00:55:50;8.13;;;6.43;;
830;SDS011;397;50.564;7.272;2023-05-16T00:58:18;10.00;;;6.20;;
830;SDS011;397;50.564;7.272;2023-05-16T01:00:48;7.33;;;6.40;;
830;SDS011;397;50.564;7.272;2023-05-16T01:03:16;9.97;;;5.97;;
830;SDS011;397;50.564;7.272;2023-05-16T01:05:43;6.77;;;6.07;;
830;SDS011;397;50.564;7.272;2023-05-16T01:08:12;8.43;;;6.97;;
830;SDS011;397;50.564;7.272;2023-05-16T01:10:48;10.10;;;5.80;;
830;SDS011;397;50.564;7.272;2023-05-16T01:13:24;5.77;;;5.20;;
830;SDS011;397;50.564;7.272;2023-05-16T01:21:23;6.73;;;5.03;;
830;SDS011;397;50.564;7.272;2023-05-16T01:24:06;5.67;;;4.63;;
830;SDS011;397;50.564;7.272;2023-05-16T01:26:33;6.60;;;4.03;;
830;SDS011;397;50.564;7.272;2023-05-16T01:29:02;4.53;;;3.90;;
830;SDS011;397;50.564;7.272;2023-05-16T01:31:30;5.23;;;4.10;;
830;SDS011;397;50.564;7.272;2023-05-16T01:33:58;5.53;;;3.67;;
830;SDS011;397;50.564;7.272;2023-05-16T01:36:30;4.77;;;4.10;;
830;SDS011;397;50.564;7.272;2023-05-16T01:39:14;4.87;;;4.03;;
830;SDS011;397;50.564;7.272;2023-05-16T01:41:45;8.43;;;4.10;;
830;SDS011;397;50.564;7.272;2023-05-16T01:44:36;4.03;;;2.93;;
830;SDS011;397;50.564;7.272;2023-05-16T01:47:11;5.23;;;3.93;;
830;SDS011;397;50.564;7.272;2023-05-16T01:49:57;4.60;;;3.73;;
830;SDS011;397;50.564;7.272;2023-05-16T01:52:44;4.93;;;3.50;;
830;SDS011;397;50.564;7.272;2023-05-16T01:55:41;3.00;;;2.63;;
830;SDS011;397;50.564;7.272;2023-05-16T01:58:03;4.87;;;3.93;;
830;SDS011;397;50.564;7.272;2023-05-16T02:00:33;3.90;;;3.20;;
830;SDS011;397;50.564;7.272;2023-05-16T02:03:00;3.97;;;3.07;;
830;SDS011;397;50.564;7.272;2023-05-16T02:05:28;4.30;;;3.13;;
830;SDS011;397;50.564;7.272;2023-05-16T02:07:55;3.87;;;2.77;;
830;SDS011;397;50.564;7.272;2023-05-16T02:10:23;5.17;;;3.70;;
830;SDS011;397;50.564;7.272;2023-05-16T02:12:51;5.93;;;4.70;;
830;SDS011;397;50.564;7.272;2023-05-16T02:15:19;3.70;;;3.23;;
830;SDS011;397;50.564;7.272;2023-05-16T02:17:46;5.33;;;3.13;;
830;SDS011;397;50.564;7.272;2023-05-16T02:20:14;7.53;;;4.30;;
830;SDS011;397;50.564;7.272;2023-05-16T02:22:41;5.00;;;4.50;;
830;SDS011;397;50.564;7.272;2023-05-16T02:25:11;5.87;;;5.27;;
830;SDS011;397;50.564;7.272;2023-05-16T02:27:41;6.17;;;5.57;;
830;SDS011;397;50.564;7.272;2023-05-16T02:30:09;6.70;;;5.67;;
830;SDS011;397;50.564;7.272;2023-05-16T02:32:42;6.17;;;5.57;;
830;SDS011;397;50.564;7.272;2023-05-16T02:35:08;6.83;;;6.13;;
830;SDS011;397;50.564;7.272;2023-05-16T02:37:35;9.47;;;7.00;;
830;SDS011;397;50.564;7.272;2023-05-16T02:40:03;8.17;;;7.37;;
830;SDS011;397;50.564;7.272;2023-05-16T02:42:32;8.23;;;7.07;;
830;SDS011;397;50.564;7.272;2023-05-16T02:45:00;7.37;;;6.67;;
830;SDS011;397;50.564;7.272;2023-05-16T02:47:27;7.53;;;6.87;;
830;SDS011;397;50.564;7.272;2023-05-16T02:49:55;8.60;;;7.70;;
830;SDS011;397;50.564;7.272;2023-05-16T02:52:22;8.57;;;7.47;;
830;SDS011;397;50.564;7.272;2023-05-16T02:54:50;11.03;;;8.40;;
830;SDS011;397;50.564;7.272;2023-05-16T02:57:17;9.00;;;8.10;;
830;SDS011;397;50.564;7.272;2023-05-16T02:59:45;7.23;;;6.53;;
830;SDS011;397;50.564;7.272;2023-05-16T03:02:12;8.00;;;6.20;;
830;SDS011;397;50.564;7.272;2023-05-16T03:04:40;7.20;;;6.60;;
830;SDS011;397;50.564;7.272;2023-05-16T03:07:08;8.80;;;6.87;;
830;SDS011;397;50.564;7.272;2023-05-16T03:09:35;6.60;;;6.00;;
830;SDS011;397;50.564;7.272;2023-05-16T03:12:03;8.53;;;7.10;;
830;SDS011;397;50.564;7.272;2023-05-16T03:14:30;9.40;;;8.50;;
830;SDS011;397;50.564;7.272;2023-05-16T03:16:58;9.30;;;8.40;;
830;SDS011;397;50.564;7.272;2023-05-16T03:19:25;9.73;;;8.73;;
830;SDS011;397;50.564;7.272;2023-05-16T03:21:53;10.03;;;9.03;;
830;SDS011;397;50.564;7.272;2023-05-16T03:24:21;10.07;;;9.07;;
830;SDS011;397;50.564;7.272;2023-05-16T03:26:48;10.60;;;9.60;;
830;SDS011;397;50.564;7.272;2023-05-16T03:29:16;11.77;;;10.57;;
830;SDS011;397;50.564;7.272;2023-05-16T03:31:44;12.30;;;11.00;;
830;SDS011;397;50.564;7.272;2023-05-16T03:34:11;11.63;;;10.43;;
830;SDS011;397;50.564;7.272;2023-05-16T03:36:39;12.50;;;11.23;;
830;SDS011;397;50.564;7.272;2023-05-16T03:39:07;13.60;;;12.13;;
830;SDS011;397;50.564;7.272;2023-05-16T03:41:35;13.47;;;12.17;;
830;SDS011;397;50.564;7.272;2023-05-16T03:44:02;11.37;;;10.27;;
830;SDS011;397;50.564;7.272;2023-05-16T03:46:30;12.03;;;10.83;;
830;SDS011;397;50.564;7.272;2023-05-16T03:48:57;9.80;;;8.90;;
830;SDS011;397;50.564;7.272;2023-05-16T03:51:25;10.53;;;9.43;;
830;SDS011;397;50.564;7.272;2023-05-16T03:53:53;9.50;;;8.70;;
830;SDS011;397;50.564;7.272;2023-05-16T03:56:21;8.47;;;7.57;;
830;SDS011;397;50.564;7.272;2023-05-16T03:58:48;10.13;;;8.10;;
830;SDS011;397;50.564;7.272;2023-05-16T04:01:15;9.00;;;7.23;;
830;SDS011;397;50.564;7.272;2023-05-16T04:03:43;8.07;;;7.27;;
830;SDS011;397;50.564;7.272;2023-05-16T04:06:10;6.70;;;5.63;;
830;SDS011;397;50.564;7.272;2023-05-16T04:08:38;9.77;;;6.43;;
830;SDS011;397;50.564;7.272;2023-05-16T04:11:05;7.17;;;5.80;;
830;SDS011;397;50.564;7.272;2023-05-16T04:13:33;9.90;;;5.40;;
830;SDS011;397;50.564;7.272;2023-05-16T04:16:00;8.20;;;5.97;;
830;SDS011;397;50.564;7.272;2023-05-16T04:18:28;8.07;;;5.07;;
830;SDS011;397;50.564;7.272;2023-05-16T04:20:55;6.60;;;5.10;;
830;SDS011;397;50.564;7.272;2023-05-16T04:23:23;6.27;;;5.57;;
830;SDS011;397;50.564;7.272;2023-05-16T04:25:50;7.73;;;6.87;;
830;SDS011;397;50.564;7.272;2023-05-16T04:28:18;9.57;;;5.37;;
830;SDS011;397;50.564;7.272;2023-05-16T04:30:46;6.97;;;5.20;;
830;SDS011;397;50.564;7.272;2023-05-16T04:33:15;6.30;;;4.60;;
830;SDS011;397;50.564;7.272;2023-05-16T04:35:43;9.37;;;5.50;;
830;SDS011;397;50.564;7.272;2023-05-16T04:38:10;5.90;;;4.13;;
830;SDS011;397;50.564;7.272;2023-05-16T04:40:38;13.20;;;5.50;;
830;SDS011;397;50.564;7.272;2023-05-16T04:43:07;8.60;;;4.80;;
830;SDS011;397;50.564;7.272;2023-05-16T04:45:35;9.00;;;5.77;;
830;SDS011;397;50.564;7.272;2023-05-16T04:48:02;9.23;;;5.10;;
830;SDS011;397;50.564;7.272;2023-05-16T04:50:30;9.00;;;5.13;;
830;SDS011;397;50.564;7.272;2023-05-16T04:52:57;6.00;;;4.73;;
830;SDS011;397;50.564;7.272;2023-05-16T04:55:25;6.27;;;4.03;;
830;SDS011;397;50.564;7.272;2023-05-16T04:57:52;8.60;;;4.53;;
830;SDS011;397;50.564;7.272;2023-05-16T05:00:20;6.73;;;3.80;;
830;SDS011;397;50.564;7.272;2023-05-16T05:02:48;9.33;;;4.40;;
830;SDS011;397;50.564;7.272;2023-05-16T05:05:15;6.10;;;3.77;;
830;SDS011;397;50.564;7.272;2023-05-16T05:07:43;6.47;;;4.30;;
830;SDS011;397;50.564;7.272;2023-05-16T05:10:10;6.70;;;4.13;;
830;SDS011;397;50.564;7.272;2023-05-16T05:12:38;8.10;;;4.00;;
830;SDS011;397;50.564;7.272;2023-05-16T05:15:05;9.87;;;4.40;;
830;SDS011;397;50.564;7.272;2023-05-16T05:17:33;10.97;;;4.10;;
830;SDS011;397;50.564;7.272;2023-05-16T05:20:02;8.77;;;4.40;;
830;SDS011;397;50.564;7.272;2023-05-16T05:22:34;5.10;;;3.80;;
830;SDS011;397;50.564;7.272;2023-05-16T05:25:02;8.70;;;4.63;;
830;SDS011;397;50.564;7.272;2023-05-16T05:27:30;7.97;;;4.50;;
830;SDS011;397;50.564;7.272;2023-05-16T05:29:58;9.30;;;5.13;;
830;SDS011;397;50.564;7.272;2023-05-16T05:32:25;9.27;;;4.43;;
830;SDS011;397;50.564;7.272;2023-05-16T05:34:53;7.57;;;5.80;;
830;SDS011;397;50.564;7.272;2023-05-16T05:37:20;6.87;;;4.73;;
830;SDS011;397;50.564;7.272;2023-05-16T05:39:48;9.10;;;5.17;;
830;SDS011;397;50.564;7.272;2023-05-16T05:42:15;8.90;;;7.03;;
830;SDS011;397;50.564;7.272;2023-05-16T05:44:43;13.40;;;8.47;;
830;SDS011;397;50.564;7.272;2023-05-16T05:47:10;16.93;;;9.10;;
830;SDS011;397;50.564;7.272;2023-05-16T05:49:38;14.20;;;7.70;;
830;SDS011;397;50.564;7.272;2023-05-16T05:52:05;16.37;;;8.70;;
830;SDS011;397;50.564;7.272;2023-05-16T05:54:33;17.03;;;9.40;;
830;SDS011;397;50.564;7.272;2023-05-16T05:57:00;10.97;;;7.40;;
830;SDS011;397;50.564;7.272;2023-05-16T05:59:28;23.00;;;8.97;;
830;SDS011;397;50.564;7.272;2023-05-16T06:01:55;10.40;;;7.00;;
830;SDS011;397;50.564;7.272;2023-05-16T06:04:23;12.30;;;8.37;;
830;SDS011;397;50.564;7.272;2023-05-16T06:06:51;12.27;;;7.80;;
830;SDS011;397;50.564;7.272;2023-05-16T06:09:19;15.83;;;8.43;;
830;SDS011;397;50.564;7.272;2023-05-16T06:11:48;15.07;;;6.67;;
830;SDS011;397;50.564;7.272;2023-05-16T06:14:16;16.33;;;8.23;;
830;SDS011;397;50.564;7.272;2023-05-16T06:16:43;13.50;;;7.30;;
830;SDS011;397;50.564;7.272;2023-05-16T06:19:11;9.50;;;7.00;;
830;SDS011;397;50.564;7.272;2023-05-16T06:21:40;14.23;;;7.00;;
830;SDS011;397;50.564;7.272;2023-05-16T06:24:08;12.90;;;6.80;;
830;SDS011;397;50.564;7.272;2023-05-16T06:26:37;10.13;;;6.87;;
830;SDS011;397;50.564;7.272;2023-05-16T06:29:04;10.50;;;6.50;;
830;SDS011;397;50.564;7.272;2023-05-16T06:31:32;13.93;;;6.30;;
830;SDS011;397;50.564;7.272;2023-05-16T06:33:59;15.30;;;6.77;;
830;SDS011;397;50.564;7.272;2023-05-16T06:36:27;11.20;;;5.80;;
830;SDS011;397;50.564;7.272;2023-05-16T06:38:54;10.70;;;6.57;;
830;SDS011;397;50.564;7.272;2023-05-16T06:41:22;16.70;;;6.43;;
830;SDS011;397;50.564;7.272;2023-05-16T06:43:49;16.27;;;6.83;;
830;SDS011;397;50.564;7.272;2023-05-16T06:46:17;14.23;;;6.40;;
830;SDS011;397;50.564;7.272;2023-05-16T06:48:44;11.83;;;5.80;;
830;SDS011;397;50.564;7.272;2023-05-16T06:51:12;23.33;;;6.13;;
830;SDS011;397;50.564;7.272;2023-05-16T06:53:39;11.40;;;5.70;;
830;SDS011;397;50.564;7.272;2023-05-16T06:56:07;11.37;;;5.70;;
830;SDS011;397;50.564;7.272;2023-05-16T06:58:34;11.40;;;5.80;;
830;SDS011;397;50.564;7.272;2023-05-16T07:01:02;20.40;;;6.67;;
830;SDS011;397;50.564;7.272;2023-05-16T07:03:29;10.43;;;5.17;;
830;SDS011;397;50.564;7.272;2023-05-16T07:05:57;8.80;;;4.90;;
830;SDS011;397;50.564;7.272;2023-05-16T07:08:24;11.53;;;5.33;;
830;SDS011;397;50.564;7.272;2023-05-16T07:10:52;14.10;;;5.10;;
830;SDS011;397;50.564;7.272;2023-05-16T07:13:19;10.57;;;4.43;;
830;SDS011;397;50.564;7.272;2023-05-16T07:15:47;7.93;;;4.37;;
830;SDS011;397;50.564;7.272;2023-05-16T07:18:14;9.00;;;5.00;;
830;SDS011;397;50.564;7.272;2023-05-16T07:20:42;12.53;;;5.00;;
830;SDS011;397;50.564;7.272;2023-05-16T07:23:10;13.07;;;4.23;;
830;SDS011;397;50.564;7.272;2023-05-16T07:25:38;14.47;;;4.67;;
830;SDS011;397;50.564;7.272;2023-05-16T07:28:05;6.83;;;3.30;;
830;SDS011;397;50.564;7.272;2023-05-16T07:30:33;8.70;;;3.90;;
830;SDS011;397;50.564;7.272;2023-05-16T07:33:00;9.33;;;4.20;;
830;SDS011;397;50.564;7.272;2023-05-16T07:35:28;12.80;;;4.13;;
830;SDS011;397;50.564;7.272;2023-05-16T07:37:55;11.90;;;4.30;;
830;SDS011;397;50.564;7.272;2023-05-16T07:40:23;11.20;;;4.77;;
830;SDS011;397;50.564;7.272;2023-05-16T07:42:52;10.97;;;4.17;;
830;SDS011;397;50.564;7.272;2023-05-16T07:45:20;9.40;;;4.63;;
830;SDS011;397;50.564;7.272;2023-05-16T07:47:48;8.53;;;4.10;;
830;SDS011;397;50.564;7.272;2023-05-16T07:50:16;9.23;;;5.37;;
830;SDS011;397;50.564;7.272;2023-05-16T07:52:43;10.70;;;4.53;;
830;SDS011;397;50.564;7.272;2023-05-16T07:55:11;14.80;;;4.77;;
830;SDS011;397;50.564;7.272;2023-05-16T07:57:39;8.23;;;4.43;;
830;SDS011;397;50.564;7.272;2023-05-16T08:00:08;9.20;;;5.27;;
830;SDS011;397;50.564;7.272;2023-05-16T08:02:36;15.37;;;4.77;;
830;SDS011;397;50.564;7.272;2023-05-16T08:05:04;9.57;;;4.80;;
830;SDS011;397;50.564;7.272;2023-05-16T08:07:32;11.37;;;4.33;;
830;SDS011;397;50.564;7.272;2023-05-16T08:09:59;9.33;;;3.30;;
830;SDS011;397;50.564;7.272;2023-05-16T08:12:28;7.30;;;3.00;;
830;SDS011;397;50.564;7.272;2023-05-16T08:14:55;12.20;;;3.00;;
830;SDS011;397;50.564;7.272;2023-05-16T08:17:23;11.60;;;3.53;;
830;SDS011;397;50.564;7.272;2023-05-16T08:19:50;6.23;;;2.63;;
830;SDS011;397;50.564;7.272;2023-05-16T08:22:18;5.80;;;2.90;;
830;SDS011;397;50.564;7.272;2023-05-16T08:24:45;8.03;;;2.20;;
830;SDS011;397;50.564;7.272;2023-05-16T08:27:13;5.60;;;3.03;;
830;SDS011;397;50.564;7.272;2023-05-16T08:29:40;7.40;;;2.90;;
830;SDS011;397;50.564;7.272;2023-05-16T08:32:08;6.20;;;2.47;;
830;SDS011;397;50.564;7.272;2023-05-16T08:34:36;3.20;;;1.93;;
830;SDS011;397;50.564;7.272;2023-05-16T08:37:03;10.30;;;2.30;;
830;SDS011;397;50.564;7.272;2023-05-16T08:39:31;5.83;;;2.10;;
830;SDS011;397;50.564;7.272;2023-05-16T08:41:58;9.07;;;2.37;;
830;SDS011;397;50.564;7.272;2023-05-16T08:44:27;4.20;;;2.43;;
830;SDS011;397;50.564;7.272;2023-05-16T08:46:55;9.13;;;3.30;;
830;SDS011;397;50.564;7.272;2023-05-16T08:49:23;8.47;;;3.20;;
830;SDS011;397;50.564;7.272;2023-05-16T08:51:55;4.87;;;2.53;;
830;SDS011;397;50.564;7.272;2023-05-16T08:54:23;7.10;;;2.77;;
830;SDS011;397;50.564;7.272;2023-05-16T08:56:50;7.43;;;3.30;;
830;SDS011;397;50.564;7.272;2023-05-16T08:59:18;8.20;;;2.77;;
830;SDS011;397;50.564;7.272;2023-05-16T09:01:46;7.27;;;1.77;;
830;SDS011;397;50.564;7.272;2023-05-16T09:04:14;6.87;;;2.27;;
830;SDS011;397;50.564;7.272;2023-05-16T09:06:42;6.00;;;2.20;;
830;SDS011;397;50.564;7.272;2023-05-16T09:09:10;6.90;;;2.13;;
830;SDS011;397;50.564;7.272;2023-05-16T09:11:38;6.90;;;2.13;;
830;SDS011;397;50.564;7.272;2023-05-16T09:14:07;6.90;;;2.80;;
830;SDS011;397;50.564;7.272;2023-05-16T09:16:35;6.47;;;2.10;;
830;SDS011;397;50.564;7.272;2023-05-16T09:19:02;4.00;;;1.73;;
830;SDS011;397;50.564;7.272;2023-05-16T09:21:31;6.90;;;2.50;;
830;SDS011;397;50.564;7.272;2023-05-16T09:24:03;3.90;;;1.83;;
830;SDS011;397;50.564;7.272;2023-05-16T09:26:35;12.30;;;2.30;;
830;SDS011;397;50.564;7.272;2023-05-16T09:29:10;7.50;;;2.47;;
830;SDS011;397;50.564;7.272;2023-05-16T09:31:38;6.60;;;2.37;;
830;SDS011;397;50.564;7.272;2023-05-16T09:34:07;3.93;;;1.50;;
830;SDS011;397;50.564;7.272;2023-05-16T09:36:36;6.83;;;2.00;;
830;SDS011;397;50.564;7.272;2023-05-16T09:39:05;4.53;;;2.27;;
830;SDS011;397;50.564;7.272;2023-05-16T09:41:33;5.30;;;2.10;;
830;SDS011;397;50.564;7.272;2023-05-16T09:44:09;4.33;;;1.50;;
830;SDS011;397;50.564;7.272;2023-05-16T09:46:33;5.83;;;2.50;;
830;SDS011;397;50.564;7.272;2023-05-16T09:49:02;3.73;;;1.47;;
830;SDS011;397;50.564;7.272;2023-05-16T09:51:30;5.60;;;2.43;;
830;SDS011;397;50.564;7.272;2023-05-16T09:53:58;3.40;;;1.60;;
830;SDS011;397;50.564;7.272;2023-05-16T09:56:25;9.07;;;1.70;;
830;SDS011;397;50.564;7.272;2023-05-16T09:58:54;6.67;;;1.80;;
830;SDS011;397;50.564;7.272;2023-05-16T10:01:22;5.50;;;1.47;;
830;SDS011;397;50.564;7.272;2023-05-16T10:03:49;4.70;;;1.47;;
830;SDS011;397;50.564;7.272;2023-05-16T10:06:17;5.37;;;1.73;;
830;SDS011;397;50.564;7.272;2023-05-16T10:08:45;5.40;;;1.90;;
830;SDS011;397;50.564;7.272;2023-05-16T10:11:14;5.20;;;1.67;;
830;SDS011;397;50.564;7.272;2023-05-16T10:13:43;3.87;;;2.00;;
830;SDS011;397;50.564;7.272;2023-05-16T10:16:14;3.90;;;1.70;;
830;SDS011;397;50.564;7.272;2023-05-16T10:18:42;7.80;;;2.07;;
830;SDS011;397;50.564;7.272;2023-05-16T10:21:12;9.67;;;1.73;;
830;SDS011;397;50.564;7.272;2023-05-16T10:23:41;3.90;;;1.60;;
830;SDS011;397;50.564;7.272;2023-05-16T10:26:10;6.43;;;1.60;;
830;SDS011;397;50.564;7.272;2023-05-16T10:28:39;6.13;;;2.13;;
830;SDS011;397;50.564;7.272;2023-05-16T10:31:07;5.13;;;1.70;;
830;SDS011;397;50.564;7.272;2023-05-16T10:33:36;5.70;;;1.80;;
830;SDS011;397;50.564;7.272;2023-05-16T10:36:05;5.33;;;1.80;;
830;SDS011;397;50.564;7.272;2023-05-16T10:38:35;5.07;;;1.93;;
830;SDS011;397;50.564;7.272;2023-05-16T10:41:04;5.30;;;1.70;;
830;SDS011;397;50.564;7.272;2023-05-16T10:43:33;10.07;;;2.67;;
830;SDS011;397;50.564;7.272;2023-05-16T10:46:05;4.67;;;1.57;;
830;SDS011;397;50.564;7.272;2023-05-16T10:48:38;9.23;;;1.90;;
830;SDS011;397;50.564;7.272;2023-05-16T10:54:05;4.90;;;1.57;;
830;SDS011;397;50.564;7.272;2023-05-16T10:56:37;4.73;;;1.63;;
830;SDS011;397;50.564;7.272;2023-05-16T10:59:21;9.50;;;1.60;;
830;SDS011;397;50.564;7.272;2023-05-16T11:01:51;4.60;;;1.17;;
830;SDS011;397;50.564;7.272;2023-05-16T11:04:19;5.90;;;2.07;;
830;SDS011;397;50.564;7.272;2023-05-16T11:06:50;7.10;;;1.93;;
830;SDS011;397;50.564;7.272;2023-05-16T11:09:20;4.57;;;1.60;;
830;SDS011;397;50.564;7.272;2023-05-16T11:19:46;7.83;;;2.13;;
830;SDS011;397;50.564;7.272;2023-05-16T11:24:52;5.97;;;2.00;;
830;SDS011;397;50.564;7.272;2023-05-16T11:27:22;6.80;;;1.93;;
830;SDS011;397;50.564;7.272;2023-05-16T11:29:52;8.43;;;2.17;;
830;SDS011;397;50.564;7.272;2023-05-16T11:32:21;4.40;;;2.23;;
830;SDS011;397;50.564;7.272;2023-05-16T11:34:49;4.33;;;1.77;;
830;SDS011;397;50.564;7.272;2023-05-16T11:37:19;5.30;;;1.57;;
830;SDS011;397;50.564;7.272;2023-05-16T11:39:47;3.50;;;1.27;;
830;SDS011;397;50.564;7.272;2023-05-16T11:42:15;5.50;;;2.63;;
830;SDS011;397;50.564;7.272;2023-05-16T11:44:43;5.63;;;1.97;;
830;SDS011;397;50.564;7.272;2023-05-16T11:47:10;4.07;;;1.80;;
830;SDS011;397;50.564;7.272;2023-05-16T11:49:38;5.47;;;2.17;;
830;SDS011;397;50.564;7.272;2023-05-16T11:52:06;5.33;;;1.67;;
830;SDS011;397;50.564;7.272;2023-05-16T11:54:35;5.23;;;2.30;;
830;SDS011;397;50.564;7.272;2023-05-16T11:57:03;7.33;;;2.50;;
830;SDS011;397;50.564;7.272;2023-05-16T11:59:30;7.53;;;2.57;;
830;SDS011;397;50.564;7.272;2023-05-16T12:01:58;7.53;;;2.23;;
830;SDS011;397;50.564;7.272;2023-05-16T12:04:29;4.53;;;1.77;;
830;SDS011;397;50.564;7.272;2023-05-16T12:06:57;6.43;;;2.03;;
830;SDS011;397;50.564;7.272;2023-05-16T12:09:26;6.87;;;2.00;;
830;SDS011;397;50.564;7.272;2023-05-16T12:11:53;7.60;;;1.83;;
830;SDS011;397;50.564;7.272;2023-05-16T12:14:21;4.47;;;1.53;;
830;SDS011;397;50.564;7.272;2023-05-16T12:16:50;5.30;;;1.50;;
830;SDS011;397;50.564;7.272;2023-05-16T12:19:18;7.60;;;2.00;;
830;SDS011;397;50.564;7.272;2023-05-16T12:21:46;3.17;;;1.80;;
830;SDS011;397;50.564;7.272;2023-05-16T12:24:15;3.20;;;1.77;;
830;SDS011;397;50.564;7.272;2023-05-16T12:26:43;3.60;;;2.03;;
830;SDS011;397;50.564;7.272;2023-05-16T12:29:11;3.23;;;1.60;;
830;SDS011;397;50.564;7.272;2023-05-16T12:31:39;6.17;;;1.80;;
830;SDS011;397;50.564;7.272;2023-05-16T12:34:16;3.47;;;1.67;;
830;SDS011;397;50.564;7.272;2023-05-16T12:36:49;4.90;;;1.60;;
830;SDS011;397;50.564;7.272;2023-05-16T12:39:19;6.03;;;1.50;;
830;SDS011;397;50.564;7.272;2023-05-16T12:41:47;5.73;;;1.60;;
830;SDS011;397;50.564;7.272;2023-05-16T12:44:16;5.23;;;1.47;;
830;SDS011;397;50.564;7.272;2023-05-16T12:46:45;3.30;;;1.60;;
830;SDS011;397;50.564;7.272;2023-05-16T12:49:23;5.23;;;2.07;;
830;SDS011;397;50.564;7.272;2023-05-16T12:51:48;5.20;;;1.70;;
830;SDS011;397;50.564;7.272;2023-05-16T12:54:19;4.73;;;1.57;;
830;SDS011;397;50.564;7.272;2023-05-16T12:56:47;6.40;;;1.77;;
830;SDS011;397;50.564;7.272;2023-05-16T12:59:15;5.27;;;2.13;;
830;SDS011;397;50.564;7.272;2023-05-16T13:01:44;4.43;;;2.03;;
830;SDS011;397;50.564;7.272;2023-05-16T13:04:12;6.20;;;2.60;;
830;SDS011;397;50.564;7.272;2023-05-16T13:06:41;5.80;;;2.10;;
830;SDS011;397;50.564;7.272;2023-05-16T13:09:09;7.57;;;2.13;;
830;SDS011;397;50.564;7.272;2023-05-16T13:11:37;4.07;;;1.53;;
830;SDS011;397;50.564;7.272;2023-05-16T13:14:05;5.60;;;2.20;;
830;SDS011;397;50.564;7.272;2023-05-16T13:16:32;6.97;;;2.60;;
830;SDS011;397;50.564;7.272;2023-05-16T13:19:00;6.50;;;2.13;;
830;SDS011;397;50.564;7.272;2023-05-16T13:21:28;5.17;;;2.37;;
830;SDS011;397;50.564;7.272;2023-05-16T13:23:56;4.13;;;2.00;;
830;SDS011;397;50.564;7.272;2023-05-16T13:26:24;6.00;;;2.20;;
830;SDS011;397;50.564;7.272;2023-05-16T13:28:52;4.23;;;2.50;;
830;SDS011;397;50.564;7.272;2023-05-16T13:31:20;5.47;;;1.90;;
830;SDS011;397;50.564;7.272;2023-05-16T13:33:47;6.37;;;2.50;;
830;SDS011;397;50.564;7.272;2023-05-16T13:36:15;6.50;;;2.50;;
830;SDS011;397;50.564;7.272;2023-05-16T13:38:43;6.90;;;2.53;;
830;SDS011;397;50.564;7.272;2023-05-16T13:41:10;7.03;;;2.37;;
830;SDS011;397;50.564;7.272;2023-05-16T13:43:38;5.10;;;2.00;;
830;SDS011;397;50.564;7.272;2023-05-16T13:46:06;8.47;;;2.60;;
830;SDS011;397;50.564;7.272;2023-05-16T13:48:33;9.40;;;2.30;;
830;SDS011;397;50.564;7.272;2023-05-16T13:51:01;4.90;;;2.20;;
830;SDS011;397;50.564;7.272;2023-05-16T13:53:28;5.57;;;1.53;;
830;SDS011;397;50.564;7.272;2023-05-16T13:55:56;3.60;;;1.47;;
830;SDS011;397;50.564;7.272;2023-05-16T13:58:23;4.50;;;1.83;;
830;SDS011;397;50.564;7.272;2023-05-16T14:00:51;5.40;;;1.50;;
830;SDS011;397;50.564;7.272;2023-05-16T14:03:19;3.50;;;1.33;;
830;SDS011;397;50.564;7.272;2023-05-16T14:05:47;5.90;;;1.43;;
830;SDS011;397;50.564;7.272;2023-05-16T14:08:16;3.23;;;1.47;;
830;SDS011;397;50.564;7.272;2023-05-16T14:10:44;5.63;;;1.33;;
830;SDS011;397;50.564;7.272;2023-05-16T14:13:11;4.30;;;1.70;;
830;SDS011;397;50.564;7.272;2023-05-16T14:15:39;5.00;;;1.80;;
830;SDS011;397;50.564;7.272;2023-05-16T14:18:06;5.10;;;1.87;;
830;SDS011;397;50.564;7.272;2023-05-16T14:20:34;4.20;;;1.60;;
830;SDS011;397;50.564;7.272;2023-05-16T14:23:01;3.83;;;1.63;;
830;SDS011;397;50.564;7.272;2023-05-16T14:25:29;3.80;;;2.13;;
830;SDS011;397;50.564;7.272;2023-05-16T14:27:56;3.00;;;1.73;;
830;SDS011;397;50.564;7.272;2023-05-16T14:30:24;3.10;;;1.50;;
830;SDS011;397;50.564;7.272;2023-05-16T14:32:51;6.80;;;2.23;;
830;SDS011;397;50.564;7.272;2023-05-16T14:35:19;4.63;;;2.50;;
830;SDS011;397;50.564;7.272;2023-05-16T14:37:46;5.93;;;2.10;;
830;SDS011;397;50.564;7.272;2023-05-16T14:40:14;5.00;;;2.07;;
830;SDS011;397;50.564;7.272;2023-05-16T14:42:42;3.77;;;2.13;;
830;SDS011;397;50.564;7.272;2023-05-16T14:45:09;4.50;;;2.10;;
830;SDS011;397;50.564;7.272;2023-05-16T14:47:37;6.30;;;1.70;;
830;SDS011;397;50.564;7.272;2023-05-16T14:50:05;4.70;;;1.60;;
830;SDS011;397;50.564;7.272;2023-05-16T14:52:33;3.53;;;1.60;;
830;SDS011;397;50.564;7.272;2023-05-16T14:55:00;5.50;;;2.10;;
830;SDS011;397;50.564;7.272;2023-05-16T14:57:28;4.60;;;1.67;;
830;SDS011;397;50.564;7.272;2023-05-16T14:59:55;7.60;;;2.00;;
830;SDS011;397;50.564;7.272;2023-05-16T15:02:23;4.20;;;1.10;;
830;SDS011;397;50.564;7.272;2023-05-16T15:04:51;3.23;;;1.10;;
830;SDS011;397;50.564;7.272;2023-05-16T15:07:19;4.10;;;1.50;;
830;SDS011;397;50.564;7.272;2023-05-16T15:09:46;2.93;;;1.23;;
830;SDS011;397;50.564;7.272;2023-05-16T15:12:14;7.37;;;2.03;;
830;SDS011;397;50.564;7.272;2023-05-16T15:14:42;5.40;;;1.50;;
830;SDS011;397;50.564;7.272;2023-05-16T15:17:09;8.77;;;2.10;;
830;SDS011;397;50.564;7.272;2023-05-16T15:19:37;4.10;;;1.33;;
830;SDS011;397;50.564;7.272;2023-05-16T15:22:04;3.43;;;1.53;;
830;SDS011;397;50.564;7.272;2023-05-16T15:24:33;4.00;;;1.50;;
830;SDS011;397;50.564;7.272;2023-05-16T15:27:01;4.30;;;1.60;;
830;SDS011;397;50.564;7.272;2023-05-16T15:29:29;3.80;;;1.27;;
830;SDS011;397;50.564;7.272;2023-05-16T15:31:57;4.57;;;1.30;;
830;SDS011;397;50.564;7.272;2023-05-16T15:34:25;5.50;;;1.57;;
830;SDS011;397;50.564;7.272;2023-05-16T15:36:53;2.37;;;1.30;;
830;SDS011;397;50.564;7.272;2023-05-16T15:39:20;4.60;;;1.63;;
830;SDS011;397;50.564;7.272;2023-05-16T15:41:50;6.03;;;1.63;;
830;SDS011;397;50.564;7.272;2023-05-16T15:44:19;4.10;;;1.33;;
830;SDS011;397;50.564;7.272;2023-05-16T15:46:46;3.70;;;1.70;;
830;SDS011;397;50.564;7.272;2023-05-16T15:49:14;3.17;;;1.07;;
830;SDS011;397;50.564;7.272;2023-05-16T15:51:41;3.97;;;1.40;;
830;SDS011;397;50.564;7.272;2023-05-16T15:54:09;3.50;;;1.30;;
830;SDS011;397;50.564;7.272;2023-05-16T15:56:36;7.27;;;1.80;;
830;SDS011;397;50.564;7.272;2023-05-16T15:59:04;4.83;;;1.50;;
830;SDS011;397;50.564;7.272;2023-05-16T16:04:19;5.90;;;2.30;;
830;SDS011;397;50.564;7.272;2023-05-16T16:06:47;4.43;;;1.70;;
830;SDS011;397;50.564;7.272;2023-05-16T16:09:14;6.23;;;1.73;;
830;SDS011;397;50.564;7.272;2023-05-16T16:11:42;3.10;;;1.37;;